Rechercher aéroport 
image banner adimage banner adimage banner ad
image banner ad

PS90 - Ramada Inn-Gettysburg

Situé à Gettysburg, United States

ICAO - PS90, IATA -

Données fournies par Airmate  

Information générale

Coordonnées: N39°46'0" W77°16'14"
Élévation : 510 feet MSL.
Variation magnétique : -10° East
Voir autres Aéroports à Pennsylvania

Données opérationnelles

Special qualification required
Heure actuelle UTC:
Heure actuelle locale:
METAR: KDMW 131955Z AUTO 27006KT 10SM SCT012 26/19 A2990 RMK AO2
Voir NOTAMs / SUP AIP / TFR affectant cet aéroport [VIEW]
Fréquences de communication: [VIEW]

Pistes:

Coordonnées de l'aéroport

Adresse: Gettysburg United States

Vue satellite de PS90